Time;durP1;ratioP1;P1;durP2;ratioP2;P2;SDS_P1;SDS_P2;PMS_P1;PMS_P2;Temp;Humidity;BMP_temperature;BMP_pressure;BME280_temperature;BME280_humidity;BME280_pressure;Samples;Min_cycle;Max_cycle;Signal;HPM_P1;HPM_P2
2022/07/10 00:00:17;;;;;;;;;;;;;;;;;;5093321;28;19970;-77
2022/07/10 00:02:43;;;;;;;;;;;;;;;;;;5092050;28;19988;-77
2022/07/10 00:05:09;;;;;;;;;;;;;;;;;;5092760;28;19916;-77
2022/07/10 00:07:34;;;;;;;;;;;;;;;;;;5093319;28;19942;-76
2022/07/10 00:09:59;;;;;;;;;;;;;;;;;;5093329;28;20374;-76
2022/07/10 00:12:25;;;;;;;;;;;;;;;;;;5093047;28;19920;-77
2022/07/10 00:14:50;;;;;;;;;;;;;;;;;;5092950;28;20442;-76
2022/07/10 00:17:15;;;;;;;;;;;;;;;;;;5093248;28;20321;-76
2022/07/10 00:19:41;;;;;;;;;;;;;;;;;;5091870;28;20354;-76
2022/07/10 00:22:06;;;;;;;;;;;;;;;;;;5091712;28;20003;-76
2022/07/10 00:24:31;;;;;;;;;;;;;;;;;;5075177;28;19912;-76
2022/07/10 00:26:57;;;;;;;;;;;;;;;;;;5093127;28;19916;-76
2022/07/10 00:29:22;;;;;;;;;;;;;;;;;;5091527;28;20355;-76
2022/07/10 00:31:47;;;;;;;;;;;;;;;;;;5093115;28;19920;-76
2022/07/10 00:34:12;;;;;;;;;;;;;;;;;;5093293;28;20375;-77
2022/07/10 00:36:38;;;;;;;;;;;;;;;;;;5093025;28;19922;-77
2022/07/10 00:39:03;;;;;;;;;;;;;;;;;;5092790;28;20397;-77
2022/07/10 00:41:28;;;;;;;;;;;;;;;;;;5093064;28;19917;-77
2022/07/10 00:43:58;;;;;;;;;;;;;;;;;;5092949;28;19927;-77
2022/07/10 00:46:27;;;;;;;;;;;;;;;;;;5074541;28;20007;-77
2022/07/10 00:48:52;;;;;;;;;;;;;;;;;;5092880;28;20274;-76
2022/07/10 00:51:18;;;;;;;;;;;;;;;;;;5074870;28;19916;-76
2022/07/10 00:53:47;;;;;;;;;;;;;;;;;;5091315;28;20311;-76
2022/07/10 00:56:14;;;;;;;;;;;;;;;;;;5091566;28;19916;-76
2022/07/10 00:58:39;;;;;;;;;;;;;;;;;;5091429;28;19912;-76
2022/07/10 01:01:04;;;;;;;;;;;;;;;;;;5091299;28;20456;-76
2022/07/10 01:03:30;;;;;;;;;;;;;;;;;;5091342;28;19919;-76
2022/07/10 01:05:55;;;;;;;;;;;;;;;;;;5093698;28;19981;-76
2022/07/10 01:08:20;;;;;;;;;;;;;;;;;;5095234;28;19923;-76
2022/07/10 01:10:46;;;;;;;;;;;;;;;;;;5094859;28;19927;-76
2022/07/10 01:13:11;;;;;;;;;;;;;;;;;;5095052;28;19927;-76
2022/07/10 01:15:36;;;;;;;;;;;;;;;;;;5096662;28;19916;-76
2022/07/10 01:18:02;;;;;;;;;;;;;;;;;;5095080;28;19912;-76
2022/07/10 01:20:31;;;;;;;;;;;;;;;;;;5096631;28;19920;-76
2022/07/10 01:22:56;;;;;;;;;;;;;;;;;;5094810;28;19927;-76
2022/07/10 01:25:22;;;;;;;;;;;;;;;;;;5094741;28;19934;-76
2022/07/10 01:27:47;;;;;;;;;;;;;;;;;;5095140;28;20266;-76
2022/07/10 01:30:12;;;;;;;;;;;;;;;;;;5095985;28;19931;-76
2022/07/10 01:32:41;;;;;;;;;;;;;;;;;;5096053;28;20366;-74
2022/07/10 01:35:06;;;;;;;;;;;;;;;;;;5094609;28;19961;-76
2022/07/10 01:37:31;;;;;;;;;;;;;;;;;;5095956;28;19919;-76
2022/07/10 01:39:57;;;;;;;;;;;;;;;;;;5096055;28;19916;-76
2022/07/10 01:42:22;;;;;;;;;;;;;;;;;;5094373;28;19912;-75
2022/07/10 01:44:47;;;;;;;;;;;;;;;;;;5077418;28;19912;-76
2022/07/10 01:47:12;;;;;;;;;;;;;;;;;;5095811;28;20315;-77
2022/07/10 01:49:38;;;;;;;;;;;;;;;;;;5094042;28;19985;-76
2022/07/10 01:52:03;;;;;;;;;;;;;;;;;;5093993;28;20293;-76
2022/07/10 01:54:28;;;;;;;;;;;;;;;;;;5093988;28;19920;-76
2022/07/10 01:56:54;;;;;;;;;;;;;;;;;;5095525;28;19916;-76
2022/07/10 01:59:19;;;;;;;;;;;;;;;;;;5095573;28;19916;-76
2022/07/10 02:01:44;;;;;;;;;;;;;;;;;;5095156;28;20001;-76
2022/07/10 02:06:53;;;;;;;;;;;;;;;;;;5095324;28;20017;-76
2022/07/10 02:09:19;;;;;;;;;;;;;;;;;;5095009;28;19920;-76
2022/07/10 02:11:44;;;;;;;;;;;;;;;;;;5095031;28;19921;-76
2022/07/10 02:14:09;;;;;;;;;;;;;;;;;;5093471;28;19916;-76
2022/07/10 02:16:35;;;;;;;;;;;;;;;;;;5094665;28;19939;-76
2022/07/10 02:19:01;;;;;;;;;;;;;;;;;;5093916;28;20424;-74
2022/07/10 02:21:26;;;;;;;;;;;;;;;;;;5094861;28;19924;-76
2022/07/10 02:23:51;;;;;;;;;;;;;;;;;;5094695;28;20015;-76
2022/07/10 02:26:16;;;;;;;;;;;;;;;;;;5093666;28;19941;-76
2022/07/10 02:28:42;;;;;;;;;;;;;;;;;;5095185;28;19916;-76
2022/07/10 02:31:07;;;;;;;;;;;;;;;;;;5094714;28;19920;-76
2022/07/10 02:33:32;;;;;;;;;;;;;;;;;;5095945;28;19965;-77
2022/07/10 02:35:58;;;;;;;;;;;;;;;;;;5095568;28;19981;-76
2022/07/10 02:38:23;;;;;;;;;;;;;;;;;;5093651;28;19927;-76
2022/07/10 02:40:48;;;;;;;;;;;;;;;;;;5095190;28;19923;-76
2022/07/10 02:43:13;;;;;;;;;;;;;;;;;;5095114;28;20259;-76
2022/07/10 02:45:39;;;;;;;;;;;;;;;;;;5096270;28;20014;-76
2022/07/10 02:48:04;;;;;;;;;;;;;;;;;;5097307;28;19927;-76
2022/07/10 02:50:29;;;;;;;;;;;;;;;;;;5081241;28;19916;-76
2022/07/10 02:52:54;;;;;;;;;;;;;;;;;;5100564;28;20064;-76
2022/07/10 02:55:20;;;;;;;;;;;;;;;;;;5099096;28;19916;-77
2022/07/10 02:57:45;;;;;;;;;;;;;;;;;;5098020;28;19942;-76
2022/07/10 03:00:11;;;;;;;;;;;;;;;;;;5096121;28;19920;-76
2022/07/10 03:02:36;;;;;;;;;;;;;;;;;;5096179;28;19961;-76
2022/07/10 03:05:01;;;;;;;;;;;;;;;;;;5095185;28;20061;-76
2022/07/10 03:07:27;;;;;;;;;;;;;;;;;;5094850;28;19912;-76
2022/07/10 03:09:53;;;;;;;;;;;;;;;;;;5093467;28;20367;-76
2022/07/10 03:12:18;;;;;;;;;;;;;;;;;;5096395;28;19927;-75
2022/07/10 03:14:44;;;;;;;;;;;;;;;;;;5076470;28;19919;-75
2022/07/10 03:17:09;;;;;;;;;;;;;;;;;;5092915;28;20382;-76
2022/07/10 03:19:34;;;;;;;;;;;;;;;;;;5092946;28;19920;-76
2022/07/10 03:21:59;;;;;;;;;;;;;;;;;;5092529;28;20045;-76
2022/07/10 03:24:25;;;;;;;;;;;;;;;;;;5075523;28;19912;-76
2022/07/10 03:26:50;;;;;;;;;;;;;;;;;;5092562;28;19925;-77
2022/07/10 03:29:15;;;;;;;;;;;;;;;;;;5091813;28;19974;-76
2022/07/10 03:31:41;;;;;;;;;;;;;;;;;;5093897;28;19973;-77
2022/07/10 03:34:06;;;;;;;;;;;;;;;;;;5094029;28;19916;-76
2022/07/10 03:36:31;;;;;;;;;;;;;;;;;;5075407;28;19916;-76
2022/07/10 03:38:57;;;;;;;;;;;;;;;;;;5093569;28;19963;-76
2022/07/10 03:41:22;;;;;;;;;;;;;;;;;;5092158;28;20363;-76
2022/07/10 03:43:47;;;;;;;;;;;;;;;;;;5092177;28;19938;-76
2022/07/10 03:46:12;;;;;;;;;;;;;;;;;;5092178;28;19912;-76
2022/07/10 03:48:38;;;;;;;;;;;;;;;;;;5093966;28;20259;-76
2022/07/10 03:51:03;;;;;;;;;;;;;;;;;;5075435;28;19923;-76
2022/07/10 03:53:28;;;;;;;;;;;;;;;;;;5093498;28;19928;-76
2022/07/10 03:55:54;;;;;;;;;;;;;;;;;;5094022;28;19916;-76
2022/07/10 03:58:19;;;;;;;;;;;;;;;;;;5093702;28;19916;-75
2022/07/10 04:00:44;;;;;;;;;;;;;;;;;;5075173;28;19923;-76
2022/07/10 04:03:10;;;;;;;;;;;;;;;;;;5093948;28;20355;-76
2022/07/10 04:05:35;;;;;;;;;;;;;;;;;;5092055;28;19923;-76
2022/07/10 04:08:01;;;;;;;;;;;;;;;;;;5092169;28;20461;-76
2022/07/10 04:10:27;;;;;;;;;;;;;;;;;;5092835;28;20016;-76
2022/07/10 04:12:52;;;;;;;;;;;;;;;;;;5074968;28;19920;-76
2022/07/10 04:15:17;;;;;;;;;;;;;;;;;;5093334;28;19935;-76
2022/07/10 04:17:43;;;;;;;;;;;;;;;;;;5075212;28;19912;-74
2022/07/10 04:20:08;;;;;;;;;;;;;;;;;;5092059;28;19935;-75
2022/07/10 04:22:33;;;;;;;;;;;;;;;;;;5093673;28;19999;-74
2022/07/10 04:24:59;;;;;;;;;;;;;;;;;;5091720;28;19912;-76
2022/07/10 04:27:24;;;;;;;;;;;;;;;;;;5093244;28;19920;-76
2022/07/10 04:29:49;;;;;;;;;;;;;;;;;;5091685;28;19916;-77
2022/07/10 04:32:15;;;;;;;;;;;;;;;;;;5075225;28;19920;-77
2022/07/10 04:34:40;;;;;;;;;;;;;;;;;;5094076;28;19923;-76
2022/07/10 04:37:07;;;;;;;;;;;;;;;;;;5093735;28;19923;-76
2022/07/10 04:39:32;;;;;;;;;;;;;;;;;;5092765;28;19962;-76
2022/07/10 04:41:57;;;;;;;;;;;;;;;;;;5097746;28;19958;-77
2022/07/10 04:44:23;;;;;;;;;;;;;;;;;;5096804;28;19923;-74
2022/07/10 04:46:48;;;;;;;;;;;;;;;;;;5096514;28;19912;-76
2022/07/10 04:49:13;;;;;;;;;;;;;;;;;;5096429;28;20337;-76
2022/07/10 04:51:39;;;;;;;;;;;;;;;;;;5098080;28;19932;-74
2022/07/10 04:54:04;;;;;;;;;;;;;;;;;;5079237;28;19927;-74
2022/07/10 04:56:29;;;;;;;;;;;;;;;;;;5098109;28;19939;-77
2022/07/10 04:58:54;;;;;;;;;;;;;;;;;;5096265;28;19966;-76
2022/07/10 05:01:20;;;;;;;;;;;;;;;;;;5097515;28;20283;-77
2022/07/10 05:03:45;;;;;;;;;;;;;;;;;;5096799;28;19951;-76
2022/07/10 05:06:11;;;;;;;;;;;;;;;;;;5079119;28;19916;-76
2022/07/10 05:08:36;;;;;;;;;;;;;;;;;;5097239;28;19912;-76
2022/07/10 05:11:01;;;;;;;;;;;;;;;;;;5096162;28;19920;-76
2022/07/10 05:13:26;;;;;;;;;;;;;;;;;;5078871;28;19916;-74
2022/07/10 05:15:52;;;;;;;;;;;;;;;;;;5098250;28;19915;-77
2022/07/10 05:18:17;;;;;;;;;;;;;;;;;;5081243;28;19912;-75
2022/07/10 05:20:43;;;;;;;;;;;;;;;;;;5097373;28;19920;-74
2022/07/10 05:23:09;;;;;;;;;;;;;;;;;;5099200;28;19916;-76
2022/07/10 05:25:34;;;;;;;;;;;;;;;;;;5098084;28;19912;-76
2022/07/10 05:27:59;;;;;;;;;;;;;;;;;;5081374;28;19916;-76
2022/07/10 05:30:25;;;;;;;;;;;;;;;;;;5097603;28;19965;-76
2022/07/10 05:32:50;;;;;;;;;;;;;;;;;;5096889;28;19934;-76
2022/07/10 05:35:15;;;;;;;;;;;;;;;;;;5097402;28;20278;-75
2022/07/10 05:37:41;;;;;;;;;;;;;;;;;;5097050;28;19965;-77
2022/07/10 05:40:06;;;;;;;;;;;;;;;;;;5080693;28;19912;-76
2022/07/10 05:42:32;;;;;;;;;;;;;;;;;;5098875;28;20274;-75
2022/07/10 05:44:57;;;;;;;;;;;;;;;;;;5098585;28;19957;-76
2022/07/10 05:47:22;;;;;;;;;;;;;;;;;;5079987;28;20416;-76
2022/07/10 05:49:47;;;;;;;;;;;;;;;;;;5097231;28;20007;-76
2022/07/10 05:52:13;;;;;;;;;;;;;;;;;;5097910;28;20381;-76
2022/07/10 05:54:38;;;;;;;;;;;;;;;;;;5096773;28;20006;-76
2022/07/10 05:57:04;;;;;;;;;;;;;;;;;;5097691;28;19920;-76
2022/07/10 05:59:29;;;;;;;;;;;;;;;;;;5097481;28;20432;-76
2022/07/10 06:01:54;;;;;;;;;;;;;;;;;;5095443;28;20014;-76
2022/07/10 06:04:20;;;;;;;;;;;;;;;;;;5097780;28;20389;-77
2022/07/10 06:06:46;;;;;;;;;;;;;;;;;;5096483;28;20294;-76
2022/07/10 06:09:11;;;;;;;;;;;;;;;;;;5095016;28;19963;-76
2022/07/10 06:11:37;;;;;;;;;;;;;;;;;;5094864;28;19950;-76
2022/07/10 06:14:02;;;;;;;;;;;;;;;;;;5096268;28;20374;-76
2022/07/10 06:16:27;;;;;;;;;;;;;;;;;;5096580;28;19994;-76
2022/07/10 06:18:52;;;;;;;;;;;;;;;;;;5097134;28;20000;-76
2022/07/10 06:21:21;;;;;;;;;;;;;;;;;;5095156;28;20350;-76
2022/07/10 06:23:47;;;;;;;;;;;;;;;;;;5094793;28;19999;-76
2022/07/10 06:26:12;;;;;;;;;;;;;;;;;;5094595;28;19943;-76
2022/07/10 06:28:39;;;;;;;;;;;;;;;;;;5094760;28;20004;-75
2022/07/10 06:31:04;;;;;;;;;;;;;;;;;;5098416;28;19916;-74
2022/07/10 06:33:29;;;;;;;;;;;;;;;;;;5106595;28;19955;-75
2022/07/10 06:35:55;;;;;;;;;;;;;;;;;;5097483;28;20259;-76
2022/07/10 06:38:20;;;;;;;;;;;;;;;;;;5096067;28;19916;-76
2022/07/10 06:40:45;;;;;;;;;;;;;;;;;;5096030;28;19966;-76
2022/07/10 06:43:11;;;;;;;;;;;;;;;;;;5077568;28;19920;-74
2022/07/10 06:45:36;;;;;;;;;;;;;;;;;;5095888;28;20468;-75
2022/07/10 06:48:01;;;;;;;;;;;;;;;;;;5096448;28;20289;-75
2022/07/10 06:50:30;;;;;;;;;;;;;;;;;;5094609;28;19920;-76
2022/07/10 06:52:56;;;;;;;;;;;;;;;;;;5095774;28;19954;-77
2022/07/10 06:55:21;;;;;;;;;;;;;;;;;;5095772;28;20266;-77
2022/07/10 06:57:47;;;;;;;;;;;;;;;;;;5094942;28;20002;-76
2022/07/10 07:00:12;;;;;;;;;;;;;;;;;;5077125;28;19916;-76
2022/07/10 07:02:37;;;;;;;;;;;;;;;;;;5095685;28;19922;-75
2022/07/10 07:05:03;;;;;;;;;;;;;;;;;;5094192;28;19912;-75
2022/07/10 07:07:28;;;;;;;;;;;;;;;;;;5094444;28;19912;-78
2022/07/10 07:09:54;;;;;;;;;;;;;;;;;;5097614;28;19939;-76
2022/07/10 07:12:19;;;;;;;;;;;;;;;;;;5097333;28;19924;-76
2022/07/10 07:14:44;;;;;;;;;;;;;;;;;;5096656;28;19912;-76
2022/07/10 07:17:11;;;;;;;;;;;;;;;;;;5095455;28;19916;-76
2022/07/10 07:25:05;;;;;;;;;;;;;;;;;;5094128;28;19966;-75
2022/07/10 07:27:30;;;;;;;;;;;;;;;;;;5077424;28;20313;-75
2022/07/10 07:29:56;;;;;;;;;;;;;;;;;;5095264;28;19916;-77
2022/07/10 07:32:21;;;;;;;;;;;;;;;;;;5093647;28;19924;-77
2022/07/10 07:34:46;;;;;;;;;;;;;;;;;;5094385;28;19912;-76
2022/07/10 07:37:11;;;;;;;;;;;;;;;;;;5095350;28;19916;-76
2022/07/10 07:39:37;;;;;;;;;;;;;;;;;;5094209;28;20018;-77
2022/07/10 07:42:03;;;;;;;;;;;;;;;;;;5094521;28;19919;-77
2022/07/10 07:44:29;;;;;;;;;;;;;;;;;;5094320;28;19916;-76
2022/07/10 07:46:54;;;;;;;;;;;;;;;;;;5093105;28;19917;-77
2022/07/10 07:49:19;;;;;;;;;;;;;;;;;;5093281;28;19920;-77
2022/07/10 07:51:45;;;;;;;;;;;;;;;;;;5094526;28;20309;-77
2022/07/10 07:54:10;;;;;;;;;;;;;;;;;;5093007;28;19925;-76
2022/07/10 07:56:35;;;;;;;;;;;;;;;;;;5076093;28;19970;-77
2022/07/10 07:59:00;;;;;;;;;;;;;;;;;;5076901;28;19970;-76
2022/07/10 08:01:26;;;;;;;;;;;;;;;;;;5094092;28;20367;-76
2022/07/10 08:03:51;;;;;;;;;;;;;;;;;;5092912;28;20065;-76
2022/07/10 08:06:16;;;;;;;;;;;;;;;;;;5075984;28;19916;-78
2022/07/10 08:08:42;;;;;;;;;;;;;;;;;;5094227;28;19955;-76
2022/07/10 08:11:07;;;;;;;;;;;;;;;;;;5094497;28;20358;-76
2022/07/10 08:13:33;;;;;;;;;;;;;;;;;;5075932;28;20445;-77
2022/07/10 08:15:59;;;;;;;;;;;;;;;;;;5092348;28;20034;-76
2022/07/10 08:18:24;;;;;;;;;;;;;;;;;;5075868;28;19959;-76
2022/07/10 08:20:49;;;;;;;;;;;;;;;;;;5092922;28;20278;-76
2022/07/10 08:23:14;;;;;;;;;;;;;;;;;;5093346;28;19943;-77
2022/07/10 08:25:40;;;;;;;;;;;;;;;;;;5092751;28;19922;-77
2022/07/10 08:28:09;;;;;;;;;;;;;;;;;;5093869;28;20370;-77
2022/07/10 08:30:35;;;;;;;;;;;;;;;;;;5094177;28;19916;-77
2022/07/10 08:33:00;;;;;;;;;;;;;;;;;;5092515;28;20404;-77
2022/07/10 08:35:25;;;;;;;;;;;;;;;;;;5092640;28;19916;-77
2022/07/10 08:37:51;;;;;;;;;;;;;;;;;;5092713;28;19924;-77
2022/07/10 08:40:16;;;;;;;;;;;;;;;;;;5093913;28;19916;-77
2022/07/10 08:42:43;;;;;;;;;;;;;;;;;;5092507;28;19920;-76
2022/07/10 08:45:09;;;;;;;;;;;;;;;;;;5093085;28;19912;-76
2022/07/10 08:47:34;;;;;;;;;;;;;;;;;;5092801;28;20281;-76
2022/07/10 08:50:00;;;;;;;;;;;;;;;;;;5093500;28;19920;-77
2022/07/10 08:52:27;;;;;;;;;;;;;;;;;;5093785;28;19967;-76
2022/07/10 08:54:53;;;;;;;;;;;;;;;;;;5093004;28;19939;-76
2022/07/10 08:57:18;;;;;;;;;;;;;;;;;;5092587;28;19912;-76
2022/07/10 08:59:43;;;;;;;;;;;;;;;;;;5075419;28;19965;-76
2022/07/10 09:02:08;;;;;;;;;;;;;;;;;;5092392;28;19981;-76
2022/07/10 09:04:34;;;;;;;;;;;;;;;;;;5092274;28;19916;-76
2022/07/10 09:06:59;;;;;;;;;;;;;;;;;;5092671;28;19919;-76
2022/07/10 09:09:24;;;;;;;;;;;;;;;;;;5093506;28;19923;-76
2022/07/10 09:11:54;;;;;;;;;;;;;;;;;;5093552;28;19916;-76
2022/07/10 09:14:23;;;;;;;;;;;;;;;;;;5093450;28;19916;-76
2022/07/10 09:16:49;;;;;;;;;;;;;;;;;;5075769;28;19924;-76
2022/07/10 09:19:15;;;;;;;;;;;;;;;;;;5092301;28;20018;-77
2022/07/10 09:21:40;;;;;;;;;;;;;;;;;;5093664;28;20045;-77
2022/07/10 09:24:07;;;;;;;;;;;;;;;;;;5093676;28;19960;-76
2022/07/10 09:26:32;;;;;;;;;;;;;;;;;;5075768;28;19916;-76
2022/07/10 09:29:10;;;;;;;;;;;;;;;;;;5079700;28;19916;-76
2022/07/10 09:31:54;;;;;;;;;;;;;;;;;;5097172;28;20406;-78
2022/07/10 09:34:36;;;;;;;;;;;;;;;;;;5097568;28;19916;-78
2022/07/10 09:37:20;;;;;;;;;;;;;;;;;;5097075;28;19912;-77
2022/07/10 09:39:51;;;;;;;;;;;;;;;;;;5096881;28;19912;-78
2022/07/10 09:42:25;;;;;;;;;;;;;;;;;;5098236;28;19964;-78
2022/07/10 09:44:50;;;;;;;;;;;;;;;;;;5097961;28;19912;-78
2022/07/10 09:47:22;;;;;;;;;;;;;;;;;;5096791;28;20385;-78
2022/07/10 09:49:47;;;;;;;;;;;;;;;;;;5096655;28;20386;-79
2022/07/10 09:52:13;;;;;;;;;;;;;;;;;;5096589;28;20000;-78
2022/07/10 09:54:38;;;;;;;;;;;;;;;;;;5096601;28;20325;-78
2022/07/10 09:57:03;;;;;;;;;;;;;;;;;;5096432;28;19959;-78
2022/07/10 09:59:28;;;;;;;;;;;;;;;;;;5096065;28;19923;-77
2022/07/10 10:01:54;;;;;;;;;;;;;;;;;;5095806;28;20370;-79
2022/07/10 10:04:20;;;;;;;;;;;;;;;;;;5097362;28;19939;-79
2022/07/10 10:07:05;;;;;;;;;;;;;;;;;;5096355;28;19912;-77
2022/07/10 10:09:37;;;;;;;;;;;;;;;;;;5096470;28;19916;-80
2022/07/10 10:12:02;;;;;;;;;;;;;;;;;;5095211;28;19920;-78
2022/07/10 10:14:28;;;;;;;;;;;;;;;;;;5095835;28;19923;-77
2022/07/10 10:16:54;;;;;;;;;;;;;;;;;;5096060;28;19961;-77
2022/07/10 10:22:04;;;;;;;;;;;;;;;;;;5096417;28;19919;-77
2022/07/10 10:24:31;;;;;;;;;;;;;;;;;;5096034;28;19912;-77
2022/07/10 10:26:56;;;;;;;;;;;;;;;;;;5095815;28;20002;-78
2022/07/10 10:29:21;;;;;;;;;;;;;;;;;;5095330;28;20395;-78
2022/07/10 10:31:47;;;;;;;;;;;;;;;;;;5096297;28;20474;-77
2022/07/10 10:34:12;;;;;;;;;;;;;;;;;;5097096;28;19916;-77
2022/07/10 10:36:41;;;;;;;;;;;;;;;;;;5096710;28;20006;-77
2022/07/10 10:39:13;;;;;;;;;;;;;;;;;;5096593;28;19912;-77
2022/07/10 10:41:42;;;;;;;;;;;;;;;;;;5096074;28;20267;-77
2022/07/10 10:44:16;;;;;;;;;;;;;;;;;;5095333;28;19912;-77
2022/07/10 10:46:53;;;;;;;;;;;;;;;;;;5096555;28;20417;-76
2022/07/10 10:49:21;;;;;;;;;;;;;;;;;;5096431;28;20430;-78
2022/07/10 10:51:56;;;;;;;;;;;;;;;;;;5095479;28;19924;-77
2022/07/10 10:54:21;;;;;;;;;;;;;;;;;;5100169;28;19924;-77
2022/07/10 10:57:01;;;;;;;;;;;;;;;;;;5111230;28;19920;-77
2022/07/10 10:59:46;;;;;;;;;;;;;;;;;;5089099;28;19912;-78
2022/07/10 11:02:20;;;;;;;;;;;;;;;;;;5098393;28;20381;-75
2022/07/10 11:04:45;;;;;;;;;;;;;;;;;;5095668;28;20328;-75
2022/07/10 11:07:11;;;;;;;;;;;;;;;;;;5077600;28;20011;-76
2022/07/10 11:09:36;;;;;;;;;;;;;;;;;;5095594;28;19912;-77
2022/07/10 11:12:02;;;;;;;;;;;;;;;;;;5096063;28;19977;-76
2022/07/10 11:14:28;;;;;;;;;;;;;;;;;;5096735;28;20417;-76
2022/07/10 11:16:57;;;;;;;;;;;;;;;;;;5093772;28;19987;-76
2022/07/10 11:19:23;;;;;;;;;;;;;;;;;;5094753;28;20362;-77
2022/07/10 11:21:49;;;;;;;;;;;;;;;;;;5094268;28;20007;-76
2022/07/10 11:24:33;;;;;;;;;;;;;;;;;;5076789;28;19966;-76
2022/07/10 11:26:59;;;;;;;;;;;;;;;;;;5095238;28;19991;-77
2022/07/10 11:29:24;;;;;;;;;;;;;;;;;;5095160;28;20361;-79
2022/07/10 11:31:53;;;;;;;;;;;;;;;;;;5094167;28;19955;-78
2022/07/10 11:34:19;;;;;;;;;;;;;;;;;;5094024;28;20006;-78
2022/07/10 11:36:44;;;;;;;;;;;;;;;;;;5095335;28;19959;-77
2022/07/10 11:39:09;;;;;;;;;;;;;;;;;;5095180;28;19955;-78
2022/07/10 11:41:47;;;;;;;;;;;;;;;;;;5095430;28;19938;-77
2022/07/10 11:44:16;;;;;;;;;;;;;;;;;;5093735;28;20018;-77
2022/07/10 11:46:44;;;;;;;;;;;;;;;;;;5093355;28;19916;-78
2022/07/10 11:49:10;;;;;;;;;;;;;;;;;;5076110;28;20271;-77
2022/07/10 11:51:36;;;;;;;;;;;;;;;;;;5093090;28;19968;-77
2022/07/10 11:54:04;;;;;;;;;;;;;;;;;;5093093;28;19970;-77
2022/07/10 11:56:34;;;;;;;;;;;;;;;;;;5095060;28;19916;-77
2022/07/10 11:59:03;;;;;;;;;;;;;;;;;;5093911;28;20061;-77
2022/07/10 12:01:31;;;;;;;;;;;;;;;;;;5093909;28;19923;-77
2022/07/10 12:04:06;;;;;;;;;;;;;;;;;;5094969;28;19912;-79
2022/07/10 12:06:33;;;;;;;;;;;;;;;;;;5076299;28;19916;-77
2022/07/10 12:09:03;;;;;;;;;;;;;;;;;;5076283;28;20032;-77
2022/07/10 12:11:28;;;;;;;;;;;;;;;;;;5092871;28;19916;-77
2022/07/10 12:13:54;;;;;;;;;;;;;;;;;;5094022;28;20401;-78
2022/07/10 12:16:20;;;;;;;;;;;;;;;;;;5093367;28;19916;-80
2022/07/10 12:18:45;;;;;;;;;;;;;;;;;;5098296;28;19924;-77
2022/07/10 12:21:11;;;;;;;;;;;;;;;;;;5094292;28;19916;-78
2022/07/10 12:23:39;;;;;;;;;;;;;;;;;;5075872;28;19912;-76
2022/07/10 12:26:04;;;;;;;;;;;;;;;;;;5093740;28;19923;-76
2022/07/10 12:28:30;;;;;;;;;;;;;;;;;;5092855;28;19917;-77
2022/07/10 12:30:55;;;;;;;;;;;;;;;;;;5094141;28;19999;-77
2022/07/10 12:33:21;;;;;;;;;;;;;;;;;;5092460;28;19927;-77
2022/07/10 12:35:47;;;;;;;;;;;;;;;;;;5094080;28;19916;-78
2022/07/10 12:38:25;;;;;;;;;;;;;;;;;;5093758;28;19912;-78
2022/07/10 12:40:51;;;;;;;;;;;;;;;;;;5092696;28;19912;-79
2022/07/10 12:43:29;;;;;;;;;;;;;;;;;;5092611;28;19919;-77
2022/07/10 12:46:15;;;;;;;;;;;;;;;;;;5093068;28;20324;-77
2022/07/10 12:48:41;;;;;;;;;;;;;;;;;;5092895;28;20312;-76
2022/07/10 12:51:25;;;;;;;;;;;;;;;;;;5075724;28;19927;-78
2022/07/10 12:53:51;;;;;;;;;;;;;;;;;;5075367;28;20298;-78
2022/07/10 12:56:45;;;;;;;;;;;;;;;;;;5075744;28;19935;-78
2022/07/10 12:59:14;;;;;;;;;;;;;;;;;;5080104;28;20032;-79
2022/07/10 13:01:48;;;;;;;;;;;;;;;;;;5077656;28;20006;-78
2022/07/10 13:04:14;;;;;;;;;;;;;;;;;;5115337;28;19911;-78
2022/07/10 13:06:40;;;;;;;;;;;;;;;;;;5117966;28;20447;-77
2022/07/10 13:09:38;;;;;;;;;;;;;;;;;;5117690;28;20430;-78
2022/07/10 13:12:03;;;;;;;;;;;;;;;;;;5083132;28;19967;-77
2022/07/10 13:14:28;;;;;;;;;;;;;;;;;;5117154;28;19951;-77
2022/07/10 13:16:54;;;;;;;;;;;;;;;;;;5117658;28;19965;-78
2022/07/10 13:19:19;;;;;;;;;;;;;;;;;;5116489;28;20361;-77
2022/07/10 13:21:44;;;;;;;;;;;;;;;;;;5116253;28;19916;-77
2022/07/10 13:24:09;;;;;;;;;;;;;;;;;;5117077;28;20377;-77
2022/07/10 13:26:35;;;;;;;;;;;;;;;;;;5115864;28;19916;-77
2022/07/10 13:29:00;;;;;;;;;;;;;;;;;;5117440;28;19964;-78
2022/07/10 13:31:26;;;;;;;;;;;;;;;;;;5117121;28;19916;-78
2022/07/10 13:33:51;;;;;;;;;;;;;;;;;;5096133;28;19916;-77
2022/07/10 13:36:16;;;;;;;;;;;;;;;;;;5095220;28;20325;-77
2022/07/10 13:38:42;;;;;;;;;;;;;;;;;;5095535;28;20386;-78
2022/07/10 13:41:07;;;;;;;;;;;;;;;;;;5096883;28;19916;-77
2022/07/10 13:43:33;;;;;;;;;;;;;;;;;;5084444;28;19912;-76
2022/07/10 13:45:59;;;;;;;;;;;;;;;;;;5098967;28;19916;-77
2022/07/10 13:48:25;;;;;;;;;;;;;;;;;;5078472;28;19912;-77
2022/07/10 13:50:50;;;;;;;;;;;;;;;;;;5096473;28;19920;-78
2022/07/10 13:53:16;;;;;;;;;;;;;;;;;;5094896;28;19947;-77
2022/07/10 13:55:41;;;;;;;;;;;;;;;;;;5078265;28;20374;-77
2022/07/10 13:58:07;;;;;;;;;;;;;;;;;;5096739;28;19919;-78
2022/07/10 14:00:32;;;;;;;;;;;;;;;;;;5094952;28;20321;-77
2022/07/10 14:03:00;;;;;;;;;;;;;;;;;;5094866;28;20386;-78
2022/07/10 14:05:25;;;;;;;;;;;;;;;;;;5095906;28;19978;-78
2022/07/10 14:07:50;;;;;;;;;;;;;;;;;;5094946;28;20432;-78
2022/07/10 14:10:16;;;;;;;;;;;;;;;;;;5096134;28;19916;-78
2022/07/10 14:12:41;;;;;;;;;;;;;;;;;;5095089;28;19969;-77
2022/07/10 14:15:07;;;;;;;;;;;;;;;;;;5096031;28;19961;-78
2022/07/10 14:17:32;;;;;;;;;;;;;;;;;;5094618;28;19916;-78
2022/07/10 14:19:57;;;;;;;;;;;;;;;;;;5096335;28;19920;-77
2022/07/10 14:22:24;;;;;;;;;;;;;;;;;;5094552;28;19923;-78
2022/07/10 14:24:49;;;;;;;;;;;;;;;;;;5077830;28;20267;-77
2022/07/10 14:27:14;;;;;;;;;;;;;;;;;;5096326;28;19938;-77
2022/07/10 14:29:40;;;;;;;;;;;;;;;;;;5094930;28;19923;-76
2022/07/10 14:32:05;;;;;;;;;;;;;;;;;;5096220;28;20393;-77
2022/07/10 14:34:30;;;;;;;;;;;;;;;;;;5096183;28;19950;-77
2022/07/10 14:36:56;;;;;;;;;;;;;;;;;;5095645;28;19923;-78
2022/07/10 14:39:21;;;;;;;;;;;;;;;;;;5096793;28;19920;-78
2022/07/10 14:41:46;;;;;;;;;;;;;;;;;;5094905;28;19955;-78
2022/07/10 14:44:12;;;;;;;;;;;;;;;;;;5096891;28;19917;-79
2022/07/10 14:46:37;;;;;;;;;;;;;;;;;;5096405;28;20359;-78
2022/07/10 14:49:02;;;;;;;;;;;;;;;;;;5097032;28;20393;-78
2022/07/10 14:51:28;;;;;;;;;;;;;;;;;;5080536;28;19916;-79
2022/07/10 14:53:55;;;;;;;;;;;;;;;;;;5097096;28;20340;-78
2022/07/10 14:56:20;;;;;;;;;;;;;;;;;;5098310;28;19920;-79
2022/07/10 14:58:45;;;;;;;;;;;;;;;;;;5099264;28;20029;-78
2022/07/10 15:01:11;;;;;;;;;;;;;;;;;;5079892;28;19962;-79
2022/07/10 15:03:36;;;;;;;;;;;;;;;;;;5096746;28;20347;-79
2022/07/10 15:06:01;;;;;;;;;;;;;;;;;;5095333;28;20014;-78
2022/07/10 15:08:27;;;;;;;;;;;;;;;;;;5096129;28;19917;-78
2022/07/10 15:10:52;;;;;;;;;;;;;;;;;;5099760;28;20316;-78
2022/07/10 15:13:17;;;;;;;;;;;;;;;;;;5102406;28;19921;-79
2022/07/10 15:15:43;;;;;;;;;;;;;;;;;;5099525;28;19912;-79
2022/07/10 15:18:08;;;;;;;;;;;;;;;;;;5096907;28;19920;-79
2022/07/10 15:20:34;;;;;;;;;;;;;;;;;;5095297;28;19920;-79
2022/07/10 15:22:59;;;;;;;;;;;;;;;;;;5078191;28;20019;-79
2022/07/10 15:25:27;;;;;;;;;;;;;;;;;;5096278;28;19916;-79
2022/07/10 15:27:53;;;;;;;;;;;;;;;;;;5095220;28;19935;-79
2022/07/10 15:30:18;;;;;;;;;;;;;;;;;;5094747;28;20371;-79
2022/07/10 15:32:44;;;;;;;;;;;;;;;;;;5094238;28;19916;-80
2022/07/10 15:35:10;;;;;;;;;;;;;;;;;;5096773;28;20382;-77
2022/07/10 15:37:35;;;;;;;;;;;;;;;;;;5094459;28;19954;-77
2022/07/10 15:40:01;;;;;;;;;;;;;;;;;;5094451;28;19977;-80
2022/07/10 15:42:26;;;;;;;;;;;;;;;;;;5096057;28;19917;-80
2022/07/10 15:44:51;;;;;;;;;;;;;;;;;;5105387;28;19926;-79
2022/07/10 15:47:16;;;;;;;;;;;;;;;;;;5110775;28;19916;-78
2022/07/10 15:49:42;;;;;;;;;;;;;;;;;;5112078;28;19950;-80
2022/07/10 15:52:07;;;;;;;;;;;;;;;;;;5107131;28;19920;-81
2022/07/10 15:54:34;;;;;;;;;;;;;;;;;;5077152;28;20288;-80
2022/07/10 15:57:01;;;;;;;;;;;;;;;;;;5093965;28;19973;-81
2022/07/10 15:59:26;;;;;;;;;;;;;;;;;;5093782;28;19951;-81
2022/07/10 16:01:52;;;;;;;;;;;;;;;;;;5093221;28;19916;-81
2022/07/10 16:04:18;;;;;;;;;;;;;;;;;;5093277;28;19919;-81
2022/07/10 16:06:43;;;;;;;;;;;;;;;;;;5094584;28;19916;-81
2022/07/10 16:09:08;;;;;;;;;;;;;;;;;;5094261;28;19916;-80
2022/07/10 16:11:33;;;;;;;;;;;;;;;;;;5094155;28;19968;-82
2022/07/10 16:13:59;;;;;;;;;;;;;;;;;;5093106;28;19917;-81
2022/07/10 16:16:24;;;;;;;;;;;;;;;;;;5092952;28;20000;-79
2022/07/10 16:18:52;;;;;;;;;;;;;;;;;;5093370;28;20257;-81
2022/07/10 16:21:18;;;;;;;;;;;;;;;;;;5093271;28;20366;-81
2022/07/10 16:23:43;;;;;;;;;;;;;;;;;;5094555;28;19917;-82
2022/07/10 16:26:11;;;;;;;;;;;;;;;;;;5094151;28;19916;-81
2022/07/10 16:28:36;;;;;;;;;;;;;;;;;;5093112;28;19934;-81
2022/07/10 16:31:02;;;;;;;;;;;;;;;;;;5094533;28;20374;-80
2022/07/10 16:33:28;;;;;;;;;;;;;;;;;;5078508;28;20355;-78
2022/07/10 16:35:53;;;;;;;;;;;;;;;;;;5107319;28;19916;-80
2022/07/10 16:38:18;;;;;;;;;;;;;;;;;;5101589;28;20358;-78
2022/07/10 16:40:44;;;;;;;;;;;;;;;;;;5097159;28;19919;-80
2022/07/10 16:43:10;;;;;;;;;;;;;;;;;;5097291;28;20383;-79
2022/07/10 16:45:36;;;;;;;;;;;;;;;;;;5096933;28;19912;-79
2022/07/10 16:48:01;;;;;;;;;;;;;;;;;;5098863;28;20286;-79
2022/07/10 16:50:26;;;;;;;;;;;;;;;;;;5102403;28;19973;-79